createdAt,value
2022-12-24T00:04:18.729Z,161.66784
2022-12-24T00:09:20.639Z,157.88889
2022-12-24T00:14:22.693Z,160.14035
2022-12-24T00:19:24.548Z,159.38462
2022-12-24T00:24:26.383Z,150.02007
2022-12-24T00:29:28.357Z,157.88889
2022-12-24T00:34:30.734Z,159.38462
2022-12-24T00:39:33.079Z,157.88889
2022-12-24T00:44:34.905Z,157.88889
2022-12-24T00:49:36.809Z,157.14879
2022-12-24T00:54:38.621Z,153.52381
2022-12-24T00:59:40.513Z,155.68385
2022-12-24T01:04:42.518Z,155.68385
2022-12-24T01:09:44.427Z,153.52381
2022-12-24T01:14:45.876Z,152.10811
2022-12-24T01:19:47.469Z,153.52381
2022-12-24T01:24:49.349Z,154.9589
2022-12-24T01:29:50.921Z,154.9589
2022-12-24T01:34:52.725Z,151.40741
2022-12-24T01:39:54.494Z,152.10811
2022-12-24T01:44:56.472Z,152.10811
2022-12-24T01:49:58.142Z,152.81356
2022-12-24T01:55:00.331Z,152.81356
2022-12-24T02:00:02.289Z,152.10811
2022-12-24T02:05:04.332Z,148.65116
2022-12-24T02:10:06.063Z,149.33333
2022-12-24T02:15:07.913Z,151.40741
2022-12-24T02:20:09.955Z,151.40741
2022-12-24T02:25:11.738Z,154.9589
2022-12-24T02:30:13.543Z,152.81356
2022-12-24T02:35:15.578Z,153.52381
2022-12-24T02:40:17.797Z,153.52381
2022-12-24T02:45:19.655Z,151.40741
2022-12-24T02:50:21.446Z,144.65147
2022-12-24T02:55:23.440Z,141.4359
2022-12-24T03:00:25.226Z,138.32177
2022-12-24T03:05:26.989Z,142.07074
2022-12-24T03:10:28.571Z,142.07074
2022-12-24T03:15:30.183Z,141.4359
2022-12-24T03:20:31.775Z,135.30435
2022-12-24T03:25:33.463Z,132.95706
2022-12-24T03:30:35.035Z,131.80488
2022-12-24T03:35:36.714Z,134.71207
2022-12-24T03:40:38.268Z,134.12346
2022-12-24T03:45:39.832Z,136.5
2022-12-24T03:50:41.336Z,134.71207
2022-12-24T03:55:42.929Z,135.90031
2022-12-24T04:00:44.606Z,134.12346
2022-12-24T04:05:46.354Z,131.80488
2022-12-24T04:10:47.865Z,126.24852
2022-12-24T04:15:49.468Z,134.12346
2022-12-24T04:20:51.182Z,135.90031
2022-12-24T04:25:52.901Z,153.52381
2022-12-24T04:30:54.368Z,150.02007
2022-12-24T04:35:56.108Z,162.43972
2022-12-24T04:40:57.648Z,162.43972
2022-12-24T04:45:59.262Z,162.43972
2022-12-24T04:51:01.064Z,162.43972
2022-12-24T04:56:03.102Z,157.14879
2022-12-24T05:01:04.862Z,163.21708
2022-12-24T05:06:06.919Z,170.47059
2022-12-24T05:11:08.417Z,168
2022-12-24T05:16:09.900Z,192.3871
2022-12-24T05:21:11.436Z,177.33333
2022-12-24T05:26:13.011Z,184.625
2022-12-24T05:31:14.633Z,176.45283
2022-12-24T05:36:16.776Z,198.54545
2022-12-24T05:41:18.707Z,183.68872
2022-12-24T05:46:20.565Z,187.47826
2022-12-24T05:51:22.613Z,175.57895
2022-12-24T05:56:24.429Z,166.38267
2022-12-24T06:01:26.332Z,178.22053
2022-12-24T06:06:28.484Z,171.30627
2022-12-24T06:11:29.951Z,178.22053
2022-12-24T06:16:31.535Z,197.49794
2022-12-24T06:21:33.604Z,203.91561
2022-12-24T06:26:35.551Z,212.99563
2022-12-24T06:31:37.603Z,230.51163
2022-12-24T06:36:39.552Z,216.56637
2022-12-24T06:41:41.489Z,226.56881
2022-12-24T06:46:43.457Z,243.02913
2022-12-24T06:51:45.249Z,230.51163
2022-12-24T06:56:46.859Z,238.73684
2022-12-24T07:01:48.608Z,217.77778
2022-12-24T07:06:50.552Z,245.96078
2022-12-24T07:11:52.063Z,243.02913
2022-12-24T07:16:58.765Z,243.02913
2022-12-24T07:22:00.920Z,250.46766
2022-12-24T07:27:02.757Z,304.23392
2022-12-24T07:32:04.657Z,310.66667
2022-12-24T07:37:06.606Z,259.89744
2022-12-24T07:42:08.647Z,286.22222
2022-12-24T07:47:10.631Z,280.61202
2022-12-24T07:52:12.825Z,319.60976
2022-12-24T07:57:14.748Z,421.51938
2022-12-24T08:02:18.725Z,377.80282
2022-12-24T08:07:21.306Z,377.80282
2022-12-24T08:12:23.283Z,414.22901
2022-12-24T08:17:30.331Z,326.6087
2022-12-24T08:22:36.183Z,466.0339
2022-12-24T08:27:38.120Z,432.88889
2022-12-24T08:32:39.938Z,457.33333
2022-12-24T08:37:42.109Z,509.13761
2022-12-24T08:42:44.067Z,432.88889
2022-12-24T08:47:46.212Z,425.25
2022-12-24T08:52:47.774Z,494
2022-12-24T08:57:49.656Z,466.0339
2022-12-24T09:02:51.622Z,448.91803
2022-12-24T09:07:53.377Z,461.64706
2022-12-24T09:12:55.076Z,417.84615
2022-12-24T09:17:56.741Z,425.25
2022-12-24T09:22:58.291Z,448.91803
2022-12-24T09:28:00.041Z,453.09091
2022-12-24T09:33:01.592Z,475.03448
2022-12-24T09:38:03.647Z,414.22901
2022-12-24T09:43:05.172Z,410.66667
2022-12-24T09:48:06.831Z,466.0339
2022-12-24T09:53:08.523Z,479.65217
2022-12-24T09:58:09.980Z,440.77419
2022-12-24T10:03:11.482Z,417.84615
2022-12-24T10:08:13.170Z,425.25
2022-12-24T10:13:14.944Z,479.65217
2022-12-24T10:18:16.494Z,498.95495
2022-12-24T10:23:18.299Z,448.91803
2022-12-24T10:28:20.208Z,461.64706
2022-12-24T10:33:22.237Z,494
2022-12-24T10:38:24.810Z,461.64706
2022-12-24T10:43:26.553Z,453.09091
2022-12-24T10:48:28.228Z,440.77419
2022-12-24T10:53:29.853Z,384
2022-12-24T10:58:31.801Z,414.22901
2022-12-24T11:03:33.430Z,403.70149
2022-12-24T11:08:35.183Z,436.8
2022-12-24T11:13:38.375Z,421.51938
2022-12-24T11:18:45.143Z,396.94118
2022-12-24T11:23:50.323Z,393.63504
2022-12-24T11:28:52.171Z,479.65217
2022-12-24T11:33:53.629Z,457.33333
2022-12-24T11:38:56.226Z,432.88889
2022-12-24T11:43:57.823Z,432.88889
2022-12-24T11:49:05.896Z,400.2963
2022-12-24T11:54:09.726Z,368.82759
2022-12-24T11:59:11.880Z,377.80282
2022-12-24T12:04:13.674Z,377.80282
2022-12-24T12:09:15.817Z,365.91781
2022-12-24T12:14:18.122Z,396.94118
2022-12-24T12:19:19.945Z,360.21622
2022-12-24T12:24:25.461Z,363.04762
2022-12-24T12:29:30.349Z,384
2022-12-24T12:34:32.168Z,377.80282
2022-12-24T12:39:34.424Z,387.16547
2022-12-24T12:44:36.608Z,371.77778
2022-12-24T12:49:38.191Z,384
2022-12-24T12:54:40.204Z,357.42282
2022-12-24T12:59:42.003Z,365.91781
2022-12-24T13:04:44.090Z,374.76923
2022-12-24T13:09:46.169Z,360.21622
2022-12-24T13:14:48.115Z,354.66667
2022-12-24T13:19:49.573Z,346.61438
2022-12-24T13:24:52.168Z,365.91781
2022-12-24T13:29:54.038Z,365.91781
2022-12-24T13:34:55.624Z,349.26316
2022-12-24T13:39:57.706Z,354.66667
2022-12-24T13:44:59.377Z,351.94702
2022-12-24T13:50:00.823Z,354.66667
2022-12-24T13:55:02.326Z,354.66667
2022-12-24T14:00:03.978Z,396.94118
2022-12-24T14:05:05.952Z,357.42282
2022-12-24T14:10:07.855Z,374.76923
2022-12-24T14:15:10.009Z,396.94118
2022-12-24T14:20:11.795Z,396.94118
2022-12-24T14:25:13.509Z,380.87943
2022-12-24T14:30:15.249Z,387.16547
2022-12-24T14:35:17.216Z,380.87943
2022-12-24T14:40:19.323Z,410.66667
2022-12-24T14:45:21.039Z,407.15789
2022-12-24T14:50:22.850Z,403.70149
2022-12-24T14:55:24.656Z,387.16547
2022-12-24T15:00:26.386Z,407.15789
2022-12-24T15:05:28.107Z,387.16547
2022-12-24T15:10:30.036Z,351.94702
2022-12-24T15:15:32.045Z,396.94118
2022-12-24T15:20:33.722Z,357.42282
2022-12-24T15:25:35.465Z,351.94702
2022-12-24T15:30:37.384Z,414.22901
2022-12-24T15:35:39.273Z,393.63504
2022-12-24T15:40:41.252Z,396.94118
2022-12-24T15:45:43.217Z,346.61438
2022-12-24T15:50:45.171Z,377.80282
2022-12-24T15:55:47.258Z,368.82759
2022-12-24T16:00:49.074Z,349.26316
2022-12-24T16:05:50.625Z,351.94702
2022-12-24T16:10:52.388Z,315.08434
2022-12-24T16:15:54.013Z,336.35669
2022-12-24T16:20:55.498Z,312.86228
2022-12-24T16:25:57.002Z,284.33149
2022-12-24T16:30:58.616Z,280.61202
2022-12-24T16:36:00.115Z,266.51309
2022-12-24T16:41:01.812Z,222.73303
2022-12-24T16:46:03.612Z,201.74059
2022-12-24T16:51:05.264Z,197.49794
2022-12-24T16:56:07.099Z,208.37768
2022-12-24T17:01:09.108Z,205.01695
2022-12-24T17:06:10.855Z,201.74059
2022-12-24T17:11:12.533Z,188.44444
2022-12-24T17:16:14.140Z,192.3871
2022-12-24T17:21:15.803Z,188.44444
2022-12-24T17:26:17.543Z,188.44444
2022-12-24T17:31:19.479Z,182.75969
2022-12-24T17:36:21.176Z,180.01533
2022-12-24T17:41:22.861Z,174.71161
2022-12-24T17:46:24.483Z,165.58273
2022-12-24T17:51:26.302Z,168.81752
2022-12-24T17:56:27.831Z,140.17834
2022-12-24T18:01:29.913Z,145.96721
2022-12-24T18:06:31.809Z,153.52381
2022-12-24T18:11:33.824Z,138.32177
2022-12-24T18:16:35.702Z,167.18841
2022-12-24T18:21:37.615Z,168.81752
2022-12-24T18:26:39.525Z,166.38267
2022-12-24T18:31:41.480Z,162.43972
2022-12-24T18:36:43.150Z,164
2022-12-24T18:41:45.719Z,154.23891
2022-12-24T18:46:47.550Z,150.02007
2022-12-24T18:51:49.069Z,145.30719
2022-12-24T18:56:50.519Z,149.33333
2022-12-24T19:01:52.541Z,138.32177
2022-12-24T19:06:54.219Z,127.8806
2022-12-24T19:11:55.891Z,125.71091
2022-12-24T19:16:57.555Z,124.64516
2022-12-24T19:21:59.356Z,128.43114
2022-12-24T19:27:01.328Z,128.43114
2022-12-24T19:32:03.566Z,131.23404
2022-12-24T19:37:05.509Z,145.30719
2022-12-24T19:42:07.505Z,149.33333
2022-12-24T19:47:09.487Z,154.23891
2022-12-24T19:52:11.863Z,154.23891
2022-12-24T19:57:13.648Z,152.81356
2022-12-24T20:02:15.737Z,150.02007
2022-12-24T20:07:17.791Z,150.02007
2022-12-24T20:12:19.749Z,151.40741
2022-12-24T20:17:21.808Z,142.07074
2022-12-24T20:22:23.588Z,145.96721
2022-12-24T20:27:25.373Z,144
2022-12-24T20:32:29.542Z,142.70968
2022-12-24T20:37:31.556Z,147.30033
2022-12-24T20:42:33.537Z,141.4359
2022-12-24T20:47:35.569Z,141.4359
2022-12-24T20:52:37.474Z,142.07074
2022-12-24T20:57:39.228Z,141.4359
2022-12-24T21:02:41.250Z,136.5
2022-12-24T21:07:43.109Z,138.93671
2022-12-24T21:12:45.114Z,140.17834
2022-12-24T21:17:46.933Z,138.93671
2022-12-24T21:22:48.812Z,140.80511
2022-12-24T21:27:50.613Z,138.93671
2022-12-24T21:32:52.359Z,142.07074
2022-12-24T21:37:53.818Z,137.71069
2022-12-24T21:42:56.137Z,139.55556
2022-12-24T21:47:57.936Z,149.33333
2022-12-24T21:52:59.459Z,148.65116
2022-12-24T21:58:01.241Z,144
2022-12-24T22:03:03.057Z,143.35275
2022-12-24T22:08:04.647Z,143.35275
2022-12-24T22:13:06.803Z,136.5
2022-12-24T22:18:08.901Z,132.3792
2022-12-24T22:23:10.737Z,130.10272
2022-12-24T22:28:12.634Z,129.54217
2022-12-24T22:33:14.613Z,131.80488
2022-12-24T22:38:16.416Z,130.66667
2022-12-24T22:43:18.521Z,126.78932
2022-12-24T22:48:20.138Z,124.64516
2022-12-24T22:53:22.244Z,135.30435
2022-12-24T22:58:24.029Z,131.23404
2022-12-24T23:03:26.088Z,126.78932
2022-12-24T23:08:27.715Z,126.24852
2022-12-24T23:13:29.919Z,124.11696
2022-12-24T23:18:31.828Z,125.71091
2022-12-24T23:23:37.061Z,135.30435
2022-12-24T23:28:39.406Z,145.96721
2022-12-24T23:33:41.593Z,157.14879
2022-12-24T23:38:43.470Z,151.40741
2022-12-24T23:43:45.692Z,149.33333
2022-12-24T23:48:47.660Z,152.10811
2022-12-24T23:53:49.555Z,157.14879
2022-12-24T23:58:51.347Z,156.41379
